This is the latest recevied weather packets stored in our database for station/object DG5MNJ. If no packets are shown the sender has not sent any weather packets the latest 10 day(s).
| Time | Temp. | Humidity | Pressure | Rain* | Wind** | Luminosity | Snow |
|---|---|---|---|---|---|---|---|
| 1777723202 | 23.33° C | 29% | 1018.9 hPa | 0 mm | - | 871 W/m² | - |
| 1777722602 | 23.89° C | 28% | 1019 hPa | 0 mm | - | 876 W/m² | - |
| 1777717202 | 22.22° C | 32% | 1020.1 hPa | 0 mm | - | 878 W/m² | - |
| 1777713302 | 20° C | 39% | 1020.9 hPa | 0 mm | - | 803 W/m² | - |
| 1777710902 | 18.33° C | 44% | 1021 hPa | 0 mm | - | 731 W/m² | - |
| 1777706402 | 16.67° C | 46% | 1021.5 hPa | 0 mm | - | 538 W/m² | - |
| 1777705802 | 16.11° C | 46% | 1021.4 hPa | 0 mm | - | 511 W/m² | - |
| 1777705502 | 15.56° C | 49% | 1021.5 hPa | 0 mm | - | 498 W/m² | - |
| 1777704302 | 14.44° C | 51% | 1021.2 hPa | 0 mm | - | 438 W/m² | - |
| 1777659303 | 16.11° C | 40% | 1022.8 hPa | 0 mm | - | 0 W/m² | - |
| 1777658102 | 16.67° C | 39% | 1023 hPa | 0 mm | - | 9 W/m² | - |
| 1777657505 | 17.22° C | 38% | 1022.8 hPa | 0 mm | - | 13 W/m² | - |
| 1777654502 | 18.33° C | 36% | 1022.6 hPa | 0 mm | - | 191 W/m² | - |
| 1777651801 | 18.33° C | 34% | 1022.8 hPa | 0 mm | - | 327 W/m² | - |
| 1777647301 | 19.44° C | 34% | 1022.8 hPa | 0 mm | - | 546 W/m² | - |
| 1777645521 | 19.44° C | 33% | 1023.3 hPa | 0 mm | - | 628 W/m² | - |
| 1777643103 | 18.89° C | 33% | 1023.6 hPa | 0 mm | - | 721 W/m² | - |
| 1777640702 | 19.44° C | 30% | 1023.6 hPa | 0 mm | - | 792 W/m² | - |
| 1777639502 | 18.89° C | 31% | 1023.8 hPa | 0 mm | - | 825 W/m² | - |
| 1777639202 | 18.89° C | 32% | 1023.8 hPa | 0 mm | - | 830 W/m² | - |
| 1777637122 | 17.78° C | 33% | 1024.1 hPa | 0 mm | - | 872 W/m² | - |
| 1777636822 | 17.78° C | 33% | 1024.2 hPa | 0 mm | - | 874 W/m² | - |
| 1777633802 | 17.78° C | 34% | 1024.6 hPa | 0 mm | - | 892 W/m² | - |
| 1777630802 | 16.11° C | 33% | 1025.1 hPa | 0 mm | - | 874 W/m² | - |
| 1777625422 | 14.44° C | 34% | 1025.4 hPa | 0 mm | - | 757 W/m² | - |
* Rain latest hour (hover to see other rain measurements)
** Current wind speed in m/s (hover to see current wind gust speed)